createdAt,value
2019-05-14T00:00:34.582Z,2.37
2019-05-14T00:03:03.318Z,3.93
2019-05-14T00:05:32.396Z,4.50
2019-05-14T00:08:02.246Z,7.53
2019-05-14T00:10:32.140Z,6.20
2019-05-14T00:13:01.666Z,5.37
2019-05-14T00:15:32.217Z,5.37
2019-05-14T00:18:01.283Z,5.20
2019-05-14T00:20:31.398Z,3.77
2019-05-14T00:23:01.428Z,3.73
2019-05-14T00:25:31.338Z,3.20
2019-05-14T00:28:01.340Z,1.87
2019-05-14T00:30:31.732Z,1.40
2019-05-14T00:33:01.231Z,1.30
2019-05-14T00:35:32.537Z,1.30
2019-05-14T00:38:01.306Z,1.47
2019-05-14T00:40:31.425Z,2.13
2019-05-14T00:43:02.710Z,1.43
2019-05-14T00:45:31.375Z,2.00
2019-05-14T00:48:01.475Z,1.33
2019-05-14T00:50:31.866Z,1.30
2019-05-14T00:53:01.915Z,2.50
2019-05-14T00:55:31.604Z,1.77
2019-05-14T00:58:02.303Z,1.20
2019-05-14T01:00:31.430Z,1.87
2019-05-14T01:03:02.048Z,1.40
2019-05-14T01:05:32.167Z,1.90
2019-05-14T01:08:01.948Z,2.30
2019-05-14T01:10:31.338Z,2.10
2019-05-14T01:13:01.161Z,1.93
2019-05-14T01:15:32.314Z,1.50
2019-05-14T01:18:02.160Z,2.13
2019-05-14T01:20:31.899Z,1.43
2019-05-14T01:23:02.204Z,1.70
2019-05-14T01:25:31.869Z,2.10
2019-05-14T01:28:02.200Z,2.00
2019-05-14T01:30:31.899Z,1.80
2019-05-14T01:33:01.838Z,1.50
2019-05-14T01:35:31.579Z,1.60
2019-05-14T01:38:02.707Z,1.30
2019-05-14T01:40:31.678Z,1.30
2019-05-14T01:43:02.632Z,1.70
2019-05-14T01:45:31.627Z,1.67
2019-05-14T01:48:01.277Z,2.07
2019-05-14T01:50:32.286Z,1.80
2019-05-14T01:53:01.243Z,2.13
2019-05-14T01:55:32.277Z,1.60
2019-05-14T01:58:02.311Z,1.40
2019-05-14T02:00:31.506Z,1.70
2019-05-14T02:03:01.861Z,1.63
2019-05-14T02:05:31.229Z,1.53
2019-05-14T02:08:01.749Z,2.20
2019-05-14T02:10:31.477Z,1.80
2019-05-14T02:13:01.937Z,1.50
2019-05-14T02:15:39.576Z,2.00
2019-05-14T02:18:02.264Z,1.97
2019-05-14T02:20:32.108Z,2.00
2019-05-14T02:23:01.630Z,1.57
2019-05-14T02:25:32.040Z,2.13
2019-05-14T02:28:01.464Z,2.00
2019-05-14T02:30:45.792Z,3.13
2019-05-14T02:33:00.902Z,2.40
2019-05-14T02:35:29.994Z,1.93
2019-05-14T02:37:59.769Z,1.10
2019-05-14T02:40:29.458Z,1.53
2019-05-14T02:42:59.351Z,1.20
2019-05-14T02:45:30.358Z,1.20
2019-05-14T02:48:00.413Z,1.50
2019-05-14T02:50:29.781Z,1.60
2019-05-14T02:52:59.832Z,1.73
2019-05-14T02:55:30.001Z,1.87
2019-05-14T02:57:59.728Z,1.90
2019-05-14T03:00:30.184Z,1.40
2019-05-14T03:02:59.881Z,1.90
2019-05-14T03:05:29.502Z,1.63
2019-05-14T03:07:59.925Z,1.97
2019-05-14T03:10:30.137Z,2.33
2019-05-14T03:12:59.388Z,1.90
2019-05-14T03:15:29.182Z,1.37
2019-05-14T03:17:59.911Z,1.73
2019-05-14T03:20:29.244Z,1.40
2019-05-14T03:23:04.976Z,1.87
2019-05-14T03:25:30.026Z,1.70
2019-05-14T03:27:59.969Z,1.20
2019-05-14T03:30:32.421Z,1.53
2019-05-14T03:33:02.735Z,1.60
2019-05-14T03:35:41.419Z,1.03
2019-05-14T03:38:00.658Z,1.07
2019-05-14T03:40:29.707Z,1.73
2019-05-14T03:42:59.932Z,1.30
2019-05-14T03:45:30.005Z,1.30
2019-05-14T03:47:59.150Z,1.50
2019-05-14T03:50:29.710Z,1.33
2019-05-14T03:52:59.335Z,1.70
2019-05-14T03:55:29.230Z,1.93
2019-05-14T03:57:59.461Z,1.53
2019-05-14T04:00:39.059Z,1.77
2019-05-14T04:03:09.693Z,1.40
2019-05-14T04:05:40.105Z,1.63
2019-05-14T04:08:09.714Z,1.57
2019-05-14T04:10:49.053Z,1.43
2019-05-14T04:13:11.825Z,1.37
2019-05-14T04:15:42.956Z,1.17
2019-05-14T04:18:15.200Z,1.17
2019-05-14T04:20:44.801Z,1.33
2019-05-14T04:23:15.990Z,1.67
2019-05-14T04:25:44.998Z,1.50
2019-05-14T04:28:19.137Z,1.70
2019-05-14T04:30:49.471Z,1.20
2019-05-14T04:33:21.303Z,1.30
2019-05-14T04:35:50.301Z,1.30
2019-05-14T04:38:21.049Z,1.10
2019-05-14T04:40:49.666Z,1.10
2019-05-14T04:43:19.233Z,1.33
2019-05-14T04:45:49.810Z,1.50
2019-05-14T04:48:28.996Z,1.30
2019-05-14T04:50:49.915Z,1.60
2019-05-14T04:53:19.483Z,1.40
2019-05-14T04:55:49.511Z,1.60
2019-05-14T04:58:21.559Z,1.90
2019-05-14T05:00:49.905Z,1.50
2019-05-14T05:03:20.006Z,1.50
2019-05-14T05:05:49.971Z,1.70
2019-05-14T05:08:19.922Z,1.77
2019-05-14T05:10:49.685Z,2.40
2019-05-14T05:13:18.647Z,2.33
2019-05-14T05:15:48.674Z,1.60
2019-05-14T05:18:18.578Z,1.77
2019-05-14T05:20:50.205Z,1.87
2019-05-14T05:23:18.946Z,1.97
2019-05-14T05:25:49.072Z,1.97
2019-05-14T05:28:19.017Z,3.20
2019-05-14T05:30:49.086Z,2.23
2019-05-14T05:33:18.765Z,2.20
2019-05-14T05:35:48.633Z,1.83
2019-05-14T05:38:18.375Z,2.60
2019-05-14T05:40:48.608Z,2.40
2019-05-14T05:43:19.155Z,2.37
2019-05-14T05:45:48.644Z,2.30
2019-05-14T05:48:18.810Z,2.70
2019-05-14T05:50:48.598Z,3.87
2019-05-14T05:53:19.335Z,2.60
2019-05-14T05:55:48.467Z,2.80
2019-05-14T05:58:19.664Z,2.70
2019-05-14T06:00:49.736Z,2.77
2019-05-14T06:03:20.897Z,2.70
2019-05-14T06:05:49.295Z,2.77
2019-05-14T06:08:18.870Z,2.73
2019-05-14T06:10:49.008Z,2.83
2019-05-14T06:13:18.363Z,2.53
2019-05-14T06:15:49.380Z,2.33
2019-05-14T06:18:21.679Z,2.43
2019-05-14T06:20:49.392Z,2.03
2019-05-14T06:23:18.881Z,3.03
2019-05-14T06:25:49.139Z,3.30
2019-05-14T06:28:21.015Z,3.07
2019-05-14T06:30:48.672Z,3.40
2019-05-14T06:33:19.638Z,3.20
2019-05-14T06:35:48.566Z,2.47
2019-05-14T06:38:18.505Z,2.70
2019-05-14T06:40:48.978Z,2.43
2019-05-14T06:43:19.031Z,2.63
2019-05-14T06:45:49.540Z,3.27
2019-05-14T06:48:28.104Z,2.80
2019-05-14T06:50:50.479Z,2.47
2019-05-14T06:53:20.787Z,2.27
2019-05-14T06:55:49.551Z,1.57
2019-05-14T06:58:20.238Z,2.00
2019-05-14T07:00:49.468Z,2.00
2019-05-14T07:03:18.480Z,1.20
2019-05-14T07:05:49.150Z,1.60
2019-05-14T07:08:18.857Z,0.97
2019-05-14T07:10:48.586Z,1.30
2019-05-14T07:13:18.905Z,1.20
2019-05-14T07:15:48.942Z,1.50
2019-05-14T07:18:18.994Z,1.20
2019-05-14T07:20:48.488Z,1.83
2019-05-14T07:23:19.397Z,1.17
2019-05-14T07:25:48.378Z,2.10
2019-05-14T07:28:19.324Z,1.50
2019-05-14T07:30:48.573Z,1.60
2019-05-14T07:33:18.339Z,2.40
2019-05-14T07:35:48.860Z,2.70
2019-05-14T07:38:19.570Z,1.80
2019-05-14T07:40:49.413Z,1.70
2019-05-14T07:43:18.903Z,2.37
2019-05-14T07:45:49.161Z,2.60
2019-05-14T07:48:19.733Z,2.40
2019-05-14T07:50:51.856Z,2.57
2019-05-14T07:53:19.090Z,2.23
2019-05-14T07:55:49.238Z,1.63
2019-05-14T07:58:19.634Z,1.63
2019-05-14T08:00:49.258Z,1.60
2019-05-14T08:03:19.025Z,1.70
2019-05-14T08:05:48.394Z,1.27
2019-05-14T08:08:18.773Z,1.60
2019-05-14T08:10:48.642Z,1.43
2019-05-14T08:13:19.031Z,1.00
2019-05-14T08:15:49.056Z,1.30
2019-05-14T08:18:18.836Z,1.30
2019-05-14T08:20:48.616Z,0.90
2019-05-14T08:23:18.431Z,0.90
2019-05-14T08:25:48.184Z,1.00
2019-05-14T08:28:18.758Z,1.30
2019-05-14T08:30:49.124Z,1.10
2019-05-14T08:33:18.427Z,0.90
2019-05-14T08:35:48.913Z,1.10
2019-05-14T08:38:18.435Z,0.80
2019-05-14T08:40:48.957Z,1.00
2019-05-14T08:43:18.522Z,1.20
2019-05-14T08:45:48.697Z,0.80
2019-05-14T08:48:18.972Z,1.10
2019-05-14T08:50:48.311Z,1.00
2019-05-14T08:53:18.568Z,0.93
2019-05-14T08:55:48.798Z,0.90
2019-05-14T08:58:20.020Z,1.50
2019-05-14T09:00:48.418Z,1.10
2019-05-14T09:03:19.264Z,1.80
2019-05-14T09:05:49.215Z,1.20
2019-05-14T09:08:19.127Z,1.33
2019-05-14T09:10:49.686Z,1.30
2019-05-14T09:13:18.711Z,1.40
2019-05-14T09:15:48.941Z,1.30
2019-05-14T09:18:18.498Z,1.17
2019-05-14T09:20:48.836Z,1.20
2019-05-14T09:23:19.009Z,1.17
2019-05-14T09:25:52.797Z,1.25
2019-05-14T09:28:18.957Z,1.20
2019-05-14T09:30:48.779Z,1.25
2019-05-14T09:33:18.985Z,1.30
2019-05-14T09:35:49.369Z,1.32
2019-05-14T09:38:18.966Z,1.50
2019-05-14T09:40:48.923Z,1.20
2019-05-14T09:43:18.202Z,1.12
2019-05-14T09:45:48.157Z,1.40
2019-05-14T09:48:18.072Z,1.33
2019-05-14T09:50:49.024Z,1.15
2019-05-14T09:53:19.318Z,1.12
2019-05-14T09:55:49.124Z,1.02
2019-05-14T09:58:19.883Z,1.75
2019-05-14T10:00:48.674Z,1.57
2019-05-14T10:03:19.258Z,1.50
2019-05-14T10:05:50.159Z,1.30
2019-05-14T10:08:19.283Z,1.15
2019-05-14T10:10:48.894Z,1.27
2019-05-14T10:13:17.878Z,1.80
2019-05-14T10:15:48.581Z,1.40
2019-05-14T10:18:18.860Z,0.80
2019-05-14T10:20:49.457Z,1.45
2019-05-14T10:23:18.902Z,0.90
2019-05-14T10:25:47.937Z,1.20
2019-05-14T10:28:19.075Z,1.10
2019-05-14T10:30:49.103Z,1.02
2019-05-14T10:33:18.123Z,1.30
2019-05-14T10:35:48.424Z,1.00
2019-05-14T10:38:19.036Z,1.00
2019-05-14T10:40:48.084Z,1.07
2019-05-14T10:43:19.308Z,1.12
2019-05-14T10:45:49.403Z,0.80
2019-05-14T10:48:18.619Z,0.80
2019-05-14T10:50:59.023Z,0.98
2019-05-14T10:53:20.333Z,0.90
2019-05-14T10:55:48.670Z,0.75
2019-05-14T10:58:19.465Z,0.90
2019-05-14T11:00:49.471Z,1.20
2019-05-14T11:03:18.714Z,1.10
2019-05-14T11:05:48.184Z,0.88
2019-05-14T11:08:18.922Z,1.10
2019-05-14T11:10:49.799Z,0.85
2019-05-14T11:13:19.013Z,1.15
2019-05-14T11:15:48.659Z,0.82
2019-05-14T11:18:19.809Z,0.68
2019-05-14T11:20:51.596Z,1.05
2019-05-14T11:23:18.655Z,0.93
2019-05-14T11:25:48.755Z,0.72
2019-05-14T11:28:19.055Z,1.05
2019-05-14T11:30:49.426Z,0.90
2019-05-14T11:33:18.789Z,1.07
2019-05-14T11:35:47.690Z,0.78
2019-05-14T11:38:28.597Z,0.90
2019-05-14T11:40:49.306Z,0.88
2019-05-14T11:43:17.305Z,0.98
2019-05-14T11:45:48.256Z,0.68
2019-05-14T11:48:19.055Z,0.62
2019-05-14T11:50:49.211Z,1.00
2019-05-14T11:53:20.077Z,0.65
2019-05-14T11:55:50.332Z,0.65
2019-05-14T11:58:20.572Z,0.88
2019-05-14T12:00:48.919Z,0.57
2019-05-14T12:03:19.578Z,0.70
2019-05-14T12:05:49.562Z,0.75
2019-05-14T12:08:18.831Z,0.60
2019-05-14T12:10:47.745Z,0.80
2019-05-14T12:13:19.225Z,0.70
2019-05-14T12:15:48.533Z,0.65
2019-05-14T12:18:18.615Z,0.70
2019-05-14T12:20:49.724Z,0.93
2019-05-14T12:23:19.207Z,1.12
2019-05-14T12:25:49.089Z,0.78
2019-05-14T12:28:19.158Z,0.82
2019-05-14T12:30:48.992Z,0.60
2019-05-14T12:33:19.769Z,0.72
2019-05-14T12:35:49.411Z,0.85
2019-05-14T12:38:18.933Z,1.00
2019-05-14T12:40:47.805Z,0.70
2019-05-14T12:43:18.799Z,0.98
2019-05-14T12:45:47.003Z,1.12
2019-05-14T12:48:18.560Z,1.62
2019-05-14T12:50:48.612Z,1.67
2019-05-14T12:53:19.725Z,1.75
2019-05-14T12:55:48.671Z,1.80
2019-05-14T12:58:20.240Z,1.87
2019-05-14T13:00:48.715Z,1.27
2019-05-14T13:03:19.003Z,1.32
2019-05-14T13:05:49.138Z,1.90
2019-05-14T13:08:18.520Z,1.77
2019-05-14T13:10:49.211Z,2.00
2019-05-14T13:13:19.714Z,2.40
2019-05-14T13:15:49.146Z,2.12
2019-05-14T13:18:19.287Z,2.00
2019-05-14T13:20:48.315Z,2.25
2019-05-14T13:23:18.438Z,2.15
2019-05-14T13:25:47.281Z,2.00
2019-05-14T13:28:16.105Z,2.52
2019-05-14T13:30:44.852Z,2.42
2019-05-14T13:33:13.668Z,2.58
2019-05-14T13:35:44.344Z,2.55
2019-05-14T13:38:14.371Z,3.72
2019-05-14T13:40:43.486Z,3.27
2019-05-14T13:43:14.370Z,3.30
2019-05-14T13:45:44.662Z,3.47
2019-05-14T13:48:13.099Z,3.30
2019-05-14T13:50:41.866Z,3.33
2019-05-14T13:53:12.813Z,3.40
2019-05-14T13:55:46.189Z,4.28
2019-05-14T13:58:11.436Z,3.58
2019-05-14T14:00:40.213Z,4.40
2019-05-14T14:03:10.170Z,3.98
2019-05-14T14:05:39.434Z,4.28
2019-05-14T14:08:08.757Z,3.45
2019-05-14T14:10:45.162Z,3.30
2019-05-14T14:13:11.290Z,3.70
2019-05-14T14:15:38.903Z,3.60
2019-05-14T14:18:07.611Z,2.65
2019-05-14T14:20:39.216Z,2.98
2019-05-14T14:23:21.087Z,2.37
2019-05-14T14:25:39.503Z,2.70
2019-05-14T14:28:09.950Z,2.80
2019-05-14T14:30:39.469Z,2.42
2019-05-14T14:33:08.480Z,2.98
2019-05-14T14:35:38.812Z,3.55
2019-05-14T14:38:08.722Z,2.77
2019-05-14T14:40:39.536Z,2.60
2019-05-14T14:43:08.144Z,3.65
2019-05-14T14:45:44.686Z,3.37
2019-05-14T14:48:11.828Z,3.35
2019-05-14T14:50:38.979Z,3.02
2019-05-14T14:53:09.279Z,3.30
2019-05-14T14:55:40.001Z,3.47
2019-05-14T14:58:11.438Z,3.55
2019-05-14T15:00:39.074Z,2.52
2019-05-14T15:03:10.117Z,3.33
2019-05-14T15:05:41.582Z,3.62
2019-05-14T15:08:10.547Z,3.25
2019-05-14T15:10:39.662Z,2.92
2019-05-14T15:13:09.350Z,2.47
2019-05-14T15:15:39.345Z,2.95
2019-05-14T15:18:10.057Z,2.90
2019-05-14T15:20:38.701Z,2.62
2019-05-14T15:23:09.850Z,2.60
2019-05-14T15:25:37.819Z,2.80
2019-05-14T15:28:09.223Z,2.08
2019-05-14T15:30:39.448Z,2.72
2019-05-14T15:33:09.171Z,3.10
2019-05-14T15:35:37.908Z,2.10
2019-05-14T15:38:11.110Z,1.62
2019-05-14T15:40:40.052Z,2.00
2019-05-14T15:43:09.903Z,2.00
2019-05-14T15:45:38.933Z,1.60
2019-05-14T15:48:08.968Z,1.85
2019-05-14T15:50:38.938Z,1.67
2019-05-14T15:53:10.885Z,1.82
2019-05-14T15:55:38.537Z,1.20
2019-05-14T15:58:08.715Z,1.37
2019-05-14T16:00:38.605Z,1.60
2019-05-14T16:03:08.668Z,1.80
2019-05-14T16:05:39.411Z,2.60
2019-05-14T16:08:08.478Z,2.47
2019-05-14T16:10:39.589Z,2.12
2019-05-14T16:13:08.724Z,2.30
2019-05-14T16:15:38.949Z,2.33
2019-05-14T16:18:15.513Z,2.87
2019-05-14T16:20:39.756Z,2.37
2019-05-14T16:23:10.904Z,2.02
2019-05-14T16:25:38.913Z,2.12
2019-05-14T16:28:08.766Z,1.90
2019-05-14T16:30:39.760Z,2.45
2019-05-14T16:33:09.314Z,1.87
2019-05-14T16:35:39.274Z,2.20
2019-05-14T16:38:08.494Z,2.15
2019-05-14T16:40:39.565Z,3.15
2019-05-14T16:43:07.686Z,2.27
2019-05-14T16:45:36.528Z,3.05
2019-05-14T16:48:05.310Z,2.50
2019-05-14T16:50:34.018Z,2.30
2019-05-14T16:53:02.863Z,3.17
2019-05-14T16:55:31.620Z,2.95
2019-05-14T16:58:00.454Z,2.87
2019-05-14T17:00:29.611Z,3.25
2019-05-14T17:02:59.130Z,2.95
2019-05-14T17:05:29.929Z,2.87
2019-05-14T17:07:58.848Z,2.87
2019-05-14T17:10:28.685Z,2.72
2019-05-14T17:13:01.660Z,2.65
2019-05-14T17:15:28.857Z,2.22
2019-05-14T17:17:59.665Z,1.80
2019-05-14T17:20:28.103Z,1.40
2019-05-14T17:22:59.265Z,1.25
2019-05-14T17:25:30.379Z,1.67
2019-05-14T17:27:59.351Z,1.85
2019-05-14T17:30:29.086Z,1.92
2019-05-14T17:32:58.949Z,1.40
2019-05-14T17:35:29.866Z,1.82
2019-05-14T17:37:58.790Z,2.17
2019-05-14T17:40:27.729Z,1.67
2019-05-14T17:42:59.065Z,1.87
2019-05-14T17:45:28.468Z,1.50
2019-05-14T17:47:58.495Z,1.90
2019-05-14T17:50:29.244Z,16.07
2019-05-14T17:53:00.206Z,19.45
2019-05-14T17:55:43.190Z,9.93
2019-05-14T17:58:00.246Z,9.50
2019-05-14T18:00:29.517Z,7.12
2019-05-14T18:02:59.195Z,5.45
2019-05-14T18:05:29.120Z,5.35
2019-05-14T18:07:59.646Z,5.03
2019-05-14T18:10:28.528Z,5.53
2019-05-14T18:13:00.030Z,4.85
2019-05-14T18:15:29.355Z,6.80
2019-05-14T18:17:58.914Z,5.53
2019-05-14T18:20:30.672Z,5.45
2019-05-14T18:22:59.721Z,6.05
2019-05-14T18:25:30.251Z,7.37
2019-05-14T18:27:59.061Z,7.92
2019-05-14T18:30:29.575Z,6.50
2019-05-14T18:32:58.518Z,6.20
2019-05-14T18:35:31.450Z,6.50
2019-05-14T18:38:00.274Z,5.90
2019-05-14T18:40:29.094Z,6.30
2019-05-14T18:42:59.238Z,7.53
2019-05-14T18:45:29.397Z,6.78
2019-05-14T18:47:59.136Z,6.92
2019-05-14T18:50:30.114Z,6.92
2019-05-14T18:52:59.680Z,7.90
2019-05-14T18:55:29.375Z,7.58
2019-05-14T18:57:59.352Z,7.73
2019-05-14T19:00:29.443Z,8.90
2019-05-14T19:02:58.493Z,7.67
2019-05-14T19:05:29.544Z,9.45
2019-05-14T19:07:59.256Z,8.58
2019-05-14T19:10:28.370Z,7.75
2019-05-14T19:12:58.841Z,8.43
2019-05-14T19:15:27.702Z,8.08
2019-05-14T19:18:00.487Z,7.33
2019-05-14T19:20:28.925Z,7.83
2019-05-14T19:22:59.623Z,9.83
2019-05-14T19:25:28.101Z,8.00
2019-05-14T19:27:58.327Z,8.80
2019-05-14T19:30:28.666Z,7.80
2019-05-14T19:32:57.534Z,8.90
2019-05-14T19:35:28.530Z,7.53
2019-05-14T19:37:59.279Z,7.50
2019-05-14T19:40:28.175Z,7.97
2019-05-14T19:42:57.096Z,8.80
2019-05-14T19:45:28.016Z,9.77
2019-05-14T19:47:58.243Z,9.00
2019-05-14T19:50:26.648Z,8.40
2019-05-14T19:52:55.421Z,8.33
2019-05-14T19:55:24.231Z,8.77
2019-05-14T19:57:53.022Z,9.10
2019-05-14T20:00:25.826Z,9.33
2019-05-14T20:02:54.669Z,9.23
2019-05-14T20:05:23.488Z,9.37
2019-05-14T20:07:52.346Z,9.77
2019-05-14T20:10:21.087Z,9.33
2019-05-14T20:12:49.936Z,8.50
2019-05-14T20:15:18.841Z,10.33
2019-05-14T20:17:49.061Z,9.33
2019-05-14T20:20:19.339Z,9.03
2019-05-14T20:22:49.949Z,10.37
2019-05-14T20:25:18.969Z,9.30
2019-05-14T20:27:48.056Z,10.37
2019-05-14T20:30:18.775Z,9.77
2019-05-14T20:32:49.625Z,8.53
2019-05-14T20:35:30.799Z,9.73
2019-05-14T20:37:49.347Z,10.73
2019-05-14T20:40:18.399Z,9.10
2019-05-14T20:42:49.128Z,9.50
2019-05-14T20:45:19.112Z,11.30
2019-05-14T20:47:48.280Z,9.40
2019-05-14T20:50:18.254Z,10.97
2019-05-14T20:52:50.189Z,8.40
2019-05-14T20:55:19.147Z,11.83
2019-05-14T20:57:49.579Z,10.93
2019-05-14T21:00:18.545Z,10.40
2019-05-14T21:02:47.350Z,10.57
2019-05-14T21:05:16.204Z,10.50
2019-05-14T21:07:45.005Z,10.83
2019-05-14T21:10:14.977Z,9.60
2019-05-14T21:12:43.815Z,11.10
2019-05-14T21:15:12.641Z,9.83
2019-05-14T21:17:41.470Z,11.03
2019-05-14T21:20:10.406Z,11.53
2019-05-14T21:22:40.193Z,11.73
2019-05-14T21:25:12.508Z,12.27
2019-05-14T21:27:48.045Z,12.30
2019-05-14T21:30:10.766Z,10.67
2019-05-14T21:32:42.678Z,10.83
2019-05-14T21:35:10.097Z,12.37
2019-05-14T21:37:39.563Z,11.43
2019-05-14T21:40:09.430Z,10.03
2019-05-14T21:42:38.790Z,11.53
2019-05-14T21:45:09.881Z,11.93
2019-05-14T21:47:38.966Z,11.03
2019-05-14T21:50:09.082Z,10.33
2019-05-14T21:52:39.185Z,10.23
2019-05-14T21:55:09.344Z,11.77
2019-05-14T21:57:39.647Z,10.47
2019-05-14T22:00:11.683Z,10.13
2019-05-14T22:02:49.116Z,12.10
2019-05-14T22:05:18.818Z,11.17
2019-05-14T22:07:48.499Z,12.67
2019-05-14T22:10:19.064Z,12.13
2019-05-14T22:12:48.752Z,11.83
2019-05-14T22:15:18.383Z,11.10
2019-05-14T22:17:49.208Z,12.40
2019-05-14T22:20:19.222Z,12.07
2019-05-14T22:22:48.568Z,12.57
2019-05-14T22:25:18.954Z,11.37
2019-05-14T22:27:48.432Z,12.23
2019-05-14T22:30:18.234Z,9.80
2019-05-14T22:32:47.329Z,11.53
2019-05-14T22:35:18.696Z,11.47
2019-05-14T22:37:48.252Z,11.60
2019-05-14T22:40:18.368Z,11.93
2019-05-14T22:42:47.245Z,10.23
2019-05-14T22:45:18.411Z,8.63
2019-05-14T22:47:48.458Z,8.40
2019-05-14T22:50:18.388Z,9.07
2019-05-14T22:52:48.687Z,7.57
2019-05-14T22:55:17.582Z,7.20
2019-05-14T22:57:48.347Z,8.27
2019-05-14T23:00:20.595Z,6.90
2019-05-14T23:02:48.705Z,7.90
2019-05-14T23:05:19.287Z,7.23
2019-05-14T23:07:48.634Z,7.87
2019-05-14T23:10:18.342Z,7.77
2019-05-14T23:12:48.907Z,6.90
2019-05-14T23:15:18.207Z,7.93
2019-05-14T23:17:48.031Z,7.47
2019-05-14T23:20:19.354Z,7.27
2019-05-14T23:22:49.159Z,6.80
2019-05-14T23:25:18.435Z,7.53
2019-05-14T23:27:48.194Z,7.53
2019-05-14T23:30:20.236Z,6.97
2019-05-14T23:32:49.278Z,7.17
2019-05-14T23:35:19.005Z,7.17
2019-05-14T23:37:48.873Z,6.23
2019-05-14T23:40:18.118Z,6.57
2019-05-14T23:42:48.971Z,6.90
2019-05-14T23:45:19.004Z,7.30
2019-05-14T23:47:49.294Z,7.20
2019-05-14T23:50:18.262Z,6.67
2019-05-14T23:52:49.316Z,6.23
2019-05-14T23:55:18.143Z,7.30
2019-05-14T23:57:48.149Z,6.23
